Hartwick Seminary, New York
Current Conditions -  °F | °C
As of 11:35 PM on Wednesday 22 Oct 2014 (Local Time) from KNY0 Reporting Station
Overcast Overcast  
Wind Chill: 45°   Ceiling: 2700
Heat Index: 48°   Visibility: 10mi
Dew Point: 42°   Wind: 7mph
Humidity: 79%   Direction: 30°NNE
Pressure: 29.96"   Gusts: NA
Location:  42.7228°N, 74.8929°W
Report Text: KNY0 230335Z AUTO 03006KT 10SM OVC027 09/06 A2996 RMK AO2 T00900055
Loading
Personal Weather Stations






























Interactive Weather Map
Tropical Storm Tracking
New forecast layout! Learn more

10-Day Weather Forecast

Advertisements
Track Severe Weather on mobile